Shoukeimaruno.3 — JI3587 — position and weather

sailwx.info

Track history (hours):
 
Tides and Currents Weather Stations Pressure Air Temp Water Temp Dewpoint Dewpoint Depression Visibility Wind Speed Wind Dir Waves Ship Positions

Shoukeimaruno.3

Last reported at 2015-Feb-28 06:27 UTC. Time now 2015-Mar-07 01:46 UTC.
Position N 34°57' E 139°44'.

Length 77 m; draft 3.8 m.

Type: Cargo ship. MMSI: 431300325.

Date/timePositionNaut miles runAvg speedWind from/ knotsBaromVisibWave heightAir tempDewpointWater temp
2015-Feb-28 06:27N 34°57' E 139°44'1111.9
2015-Feb-28 05:33N 35°08' E 139°45'1212.2
2015-Feb-28 04:33N 35°20' E 139°43'1110.6
2015-Feb-28 03:33N 35°30' E 139°45'1 0.9
2015-Feb-28 02:32N 35°31' E 139°45'0 0.0
2015-Feb-28 01:33N 35°31' E 139°45'0 0.0
2015-Feb-28 00:34N 35°31' E 139°45'0 0.0
2015-Feb-27 23:34N 35°31' E 139°45'0 0.0
2015-Feb-27 22:34N 35°31' E 139°45'0 0.0
2015-Feb-27 21:34N 35°31' E 139°45'4 3.9
2015-Feb-27 20:34N 35°27' E 139°43'1 0.5
2015-Feb-27 19:33N 35°27' E 139°43'0 0.1
2015-Feb-27 18:33N 35°27' E 139°43'0 0.0
2015-Feb-27 17:33N 35°27' E 139°43'2 1.6
2015-Feb-27 16:33N 35°27' E 139°45'9 9.2
2015-Feb-27 15:33N 35°17' E 139°45'1010.0
2015-Feb-27 14:33N 35°07' E 139°46'  
2015-Feb-25 07:33N 35°01' E 139°44'1111.1
2015-Feb-25 06:33N 35°12' E 139°46'1111.2
2015-Feb-25 05:33N 35°23' E 139°42'1211.5
2015-Feb-25 04:31N 35°30' E 139°53'2 0.3
2015-Feb-24 20:27N 35°31' E 139°56'1112.1
2015-Feb-24 19:33N 35°24' E 139°46'1211.6
2015-Feb-24 18:33N 35°12' E 139°47'1312.8
2015-Feb-24 17:33N 34°60' E 139°44'14 0.4
2015-Feb-23 08:25N 35°14' E 139°46'8 9.7
2015-Feb-23 07:33N 35°22' E 139°42'10 9.5
2015-Feb-23 06:32N 35°29' E 139°50'1110.4
2015-Feb-23 05:31N 35°34' E 140°01'3 0.2
2015-Feb-22 11:24N 35°32' E 139°58'1011.8
2015-Feb-22 10:34N 35°26' E 139°48'1110.5
2015-Feb-22 09:33N 35°16' E 139°47'  
2015-Feb-20 05:22N 34°57' E 139°44'911.5
2015-Feb-20 04:33N 35°06' E 139°45'1211.6
2015-Feb-20 03:33N 35°18' E 139°44'7 6.9
2015-Feb-20 02:33N 35°23' E 139°39'0 0.0
2015-Feb-20 01:33N 35°23' E 139°39'0 0.0
2015-Feb-20 00:33N 35°23' E 139°39'0 0.0
2015-Feb-19 23:33N 35°23' E 139°39'0 0.0
2015-Feb-19 22:33N 35°23' E 139°39'0 0.0
2015-Feb-19 21:33N 35°23' E 139°39'0 0.0
2015-Feb-19 20:33N 35°23' E 139°39'0 0.0
2015-Feb-19 19:33N 35°23' E 139°39'0 0.0
2015-Feb-19 18:33N 35°23' E 139°39'0 0.0
2015-Feb-19 17:33N 35°23' E 139°39'0 0.0
2015-Feb-19 16:33N 35°23' E 139°39'0 0.0
2015-Feb-19 15:33N 35°23' E 139°39'0 0.0
2015-Feb-19 14:33N 35°23' E 139°39'0 0.0
2015-Feb-19 13:33N 35°23' E 139°39'0 0.0
2015-Feb-19 12:33N 35°23' E 139°39'0 0.0
2015-Feb-19 11:33N 35°23' E 139°39'0 0.0
2015-Feb-19 10:33N 35°23' E 139°39'0 0.0
2015-Feb-19 09:33N 35°23' E 139°39'0 0.0
2015-Feb-19 08:33N 35°23' E 139°39'0 0.0
2015-Feb-19 07:33N 35°23' E 139°39'0 0.0
2015-Feb-19 06:33N 35°23' E 139°39'0 0.0
2015-Feb-19 05:33N 35°23' E 139°39'0 0.0
2015-Feb-19 04:33N 35°23' E 139°39'0 0.0
2015-Feb-19 03:33N 35°23' E 139°39'0 0.0
2015-Feb-19 02:33N 35°23' E 139°39'0 0.1
2015-Feb-19 01:33N 35°23' E 139°39'0 0.0
2015-Feb-19 00:30N 35°23' E 139°39'0 0.0
2015-Feb-18 23:33N 35°23' E 139°39'0 0.0
2015-Feb-18 22:33N 35°23' E 139°39'0 0.0
2015-Feb-18 21:33N 35°23' E 139°39'0 0.0
2015-Feb-18 20:33N 35°23' E 139°39'0 0.0
2015-Feb-18 19:33N 35°23' E 139°39'0 0.0
2015-Feb-18 18:33N 35°23' E 139°39'0 0.0
2015-Feb-18 17:33N 35°23' E 139°39'0 0.0
2015-Feb-18 16:33N 35°23' E 139°39'0 0.0
2015-Feb-18 15:33N 35°23' E 139°39'0 0.0
2015-Feb-18 14:33N 35°23' E 139°39'2 1.6
2015-Feb-18 13:28N 35°24' E 139°37'0 0.0
2015-Feb-18 12:31N 35°24' E 139°37'0 0.0
2015-Feb-18 11:31N 35°24' E 139°37'0 0.0
2015-Feb-18 10:31N 35°24' E 139°37'0 0.0
2015-Feb-18 09:28N 35°24' E 139°37'0 0.0
2015-Feb-18 08:31N 35°24' E 139°37'0 0.0
2015-Feb-18 07:31N 35°24' E 139°37'0 0.0
2015-Feb-18 06:31N 35°24' E 139°37'  
Track history (hours):
 
Tides and Currents Weather Stations Pressure Air Temp Water Temp Dewpoint Dewpoint Depression Visibility Wind Speed Wind Dir Waves Ship Positions

Shoukeimaruno.3

Last reported at 2015-Feb-28 06:27 UTC. Time now 2015-Mar-07 01:46 UTC.
Position N 34°57' E 139°44'.

Length 77 m; draft 3.8 m.

Type: Cargo ship. MMSI: 431300325.

Date/timePositionNaut miles runAvg speedWind from/ knotsBaromVisibWave heightAir tempDewpointWater temp
2015-Feb-28 06:27N 34°57' E 139°44'1111.9
2015-Feb-28 05:33N 35°08' E 139°45'1212.2
2015-Feb-28 04:33N 35°20' E 139°43'1110.6
2015-Feb-28 03:33N 35°30' E 139°45'1 0.9
2015-Feb-28 02:32N 35°31' E 139°45'0 0.0
2015-Feb-28 01:33N 35°31' E 139°45'0 0.0
2015-Feb-28 00:34N 35°31' E 139°45'0 0.0
2015-Feb-27 23:34N 35°31' E 139°45'0 0.0
2015-Feb-27 22:34N 35°31' E 139°45'0 0.0
2015-Feb-27 21:34N 35°31' E 139°45'4 3.9
2015-Feb-27 20:34N 35°27' E 139°43'1 0.5
2015-Feb-27 19:33N 35°27' E 139°43'0 0.1
2015-Feb-27 18:33N 35°27' E 139°43'0 0.0
2015-Feb-27 17:33N 35°27' E 139°43'2 1.6
2015-Feb-27 16:33N 35°27' E 139°45'9 9.2
2015-Feb-27 15:33N 35°17' E 139°45'1010.0
2015-Feb-27 14:33N 35°07' E 139°46'  
2015-Feb-25 07:33N 35°01' E 139°44'1111.1
2015-Feb-25 06:33N 35°12' E 139°46'1111.2
2015-Feb-25 05:33N 35°23' E 139°42'1211.5
2015-Feb-25 04:31N 35°30' E 139°53'2 0.3
2015-Feb-24 20:27N 35°31' E 139°56'1112.1
2015-Feb-24 19:33N 35°24' E 139°46'1211.6
2015-Feb-24 18:33N 35°12' E 139°47'1312.8
2015-Feb-24 17:33N 34°60' E 139°44'14 0.4
2015-Feb-23 08:25N 35°14' E 139°46'8 9.7
2015-Feb-23 07:33N 35°22' E 139°42'10 9.5
2015-Feb-23 06:32N 35°29' E 139°50'1110.4
2015-Feb-23 05:31N 35°34' E 140°01'3 0.2
2015-Feb-22 11:24N 35°32' E 139°58'1011.8
2015-Feb-22 10:34N 35°26' E 139°48'1110.5
2015-Feb-22 09:33N 35°16' E 139°47'  
2015-Feb-20 05:22N 34°57' E 139°44'911.5
2015-Feb-20 04:33N 35°06' E 139°45'1211.6
2015-Feb-20 03:33N 35°18' E 139°44'7 6.9
2015-Feb-20 02:33N 35°23' E 139°39'0 0.0
2015-Feb-20 01:33N 35°23' E 139°39'0 0.0
2015-Feb-20 00:33N 35°23' E 139°39'0 0.0
2015-Feb-19 23:33N 35°23' E 139°39'0 0.0
2015-Feb-19 22:33N 35°23' E 139°39'0 0.0
2015-Feb-19 21:33N 35°23' E 139°39'0 0.0
2015-Feb-19 20:33N 35°23' E 139°39'0 0.0
2015-Feb-19 19:33N 35°23' E 139°39'0 0.0
2015-Feb-19 18:33N 35°23' E 139°39'0 0.0
2015-Feb-19 17:33N 35°23' E 139°39'0 0.0
2015-Feb-19 16:33N 35°23' E 139°39'0 0.0
2015-Feb-19 15:33N 35°23' E 139°39'0 0.0
2015-Feb-19 14:33N 35°23' E 139°39'0 0.0
2015-Feb-19 13:33N 35°23' E 139°39'0 0.0
2015-Feb-19 12:33N 35°23' E 139°39'0 0.0
2015-Feb-19 11:33N 35°23' E 139°39'0 0.0
2015-Feb-19 10:33N 35°23' E 139°39'0 0.0
2015-Feb-19 09:33N 35°23' E 139°39'0 0.0
2015-Feb-19 08:33N 35°23' E 139°39'0 0.0
2015-Feb-19 07:33N 35°23' E 139°39'0 0.0
2015-Feb-19 06:33N 35°23' E 139°39'0 0.0
2015-Feb-19 05:33N 35°23' E 139°39'0 0.0
2015-Feb-19 04:33N 35°23' E 139°39'0 0.0
2015-Feb-19 03:33N 35°23' E 139°39'0 0.0
2015-Feb-19 02:33N 35°23' E 139°39'0 0.1
2015-Feb-19 01:33N 35°23' E 139°39'0 0.0
2015-Feb-19 00:30N 35°23' E 139°39'0 0.0
2015-Feb-18 23:33N 35°23' E 139°39'0 0.0
2015-Feb-18 22:33N 35°23' E 139°39'0 0.0
2015-Feb-18 21:33N 35°23' E 139°39'0 0.0
2015-Feb-18 20:33N 35°23' E 139°39'0 0.0
2015-Feb-18 19:33N 35°23' E 139°39'0 0.0
2015-Feb-18 18:33N 35°23' E 139°39'0 0.0
2015-Feb-18 17:33N 35°23' E 139°39'0 0.0
2015-Feb-18 16:33N 35°23' E 139°39'0 0.0
2015-Feb-18 15:33N 35°23' E 139°39'0 0.0
2015-Feb-18 14:33N 35°23' E 139°39'2 1.6
2015-Feb-18 13:28N 35°24' E 139°37'0 0.0
2015-Feb-18 12:31N 35°24' E 139°37'0 0.0
2015-Feb-18 11:31N 35°24' E 139°37'0 0.0
2015-Feb-18 10:31N 35°24' E 139°37'0 0.0
2015-Feb-18 09:28N 35°24' E 139°37'0 0.0
2015-Feb-18 08:31N 35°24' E 139°37'0 0.0
2015-Feb-18 07:31N 35°24' E 139°37'0 0.0
2015-Feb-18 06:31N 35°24' E 139°37'  

Dump ship's entire track history